Time;durP1;ratioP1;P1;durP2;ratioP2;P2;SDS_P1;SDS_P2;PMS_P1;PMS_P2;Temp;Humidity;BMP_temperature;BMP_pressure;BME280_temperature;BME280_humidity;BME280_pressure;Samples;Min_cycle;Max_cycle;Signal;HPM_P1;HPM_P2
2022/01/01 00:02:14;;;;;;;112.65;55.10;;;10.80;99.90;;;;;;5073555;28;20126;-69
2022/01/01 00:04:42;;;;;;;141.98;66.03;;;10.00;99.90;;;;;;5074413;28;20063;-69
2022/01/01 00:07:08;;;;;;;140.25;61.60;;;10.20;99.90;;;;;;5073368;28;20149;-69
2022/01/01 00:09:34;;;;;;;;;;;11.00;99.90;;;;;;5074604;28;20040;-70
2022/01/01 00:11:59;;;;;;;148.77;64.13;;;10.10;99.90;;;;;;5073909;28;19966;-69
2022/01/01 00:14:25;;;;;;;136.82;63.92;;;10.20;99.90;;;;;;5073699;28;20041;-69
2022/01/01 00:16:51;;;;;;;139.57;65.97;;;10.10;99.90;;;;;;5073327;28;20047;-68
2022/01/01 00:19:16;;;;;;;136.35;65.47;;;11.40;99.90;;;;;;5056234;28;20086;-68
2022/01/01 00:21:43;;;;;;;150.25;68.38;;;9.80;99.90;;;;;;5107766;28;20070;-68
2022/01/01 00:24:10;;;;;;;150.32;70.93;;;10.00;99.90;;;;;;5056418;28;20400;-69
2022/01/01 00:26:36;;;;;;;148.52;71.20;;;10.20;99.90;;;;;;5074591;28;20044;-69
2022/01/01 00:29:02;;;;;;;137.50;65.32;;;10.10;99.90;;;;;;5074560;28;20089;-69
2022/01/01 00:31:29;;;;;;;149.23;64.90;;;10.40;99.90;;;;;;5072827;28;20052;-70
2022/01/01 00:33:55;;;;;;;131.90;60.08;;;10.70;99.90;;;;;;5074439;28;20063;-68
2022/01/01 00:36:21;;;;;;;120.75;54.97;;;10.10;99.90;;;;;;5072945;28;20394;-69
2022/01/01 00:38:47;;;;;;;129.35;51.75;;;10.30;99.90;;;;;;5072230;28;20049;-69
2022/01/01 00:41:13;;;;;;;121.43;51.13;;;10.40;99.90;;;;;;5073466;28;20052;-69
2022/01/01 00:43:39;;;;;;;102.95;45.95;;;10.20;99.90;;;;;;5107552;28;20044;-69
2022/01/01 00:46:04;;;;;;;106.10;43.13;;;10.00;99.90;;;;;;5072800;28;20052;-69
2022/01/01 00:48:30;;;;;;;104.47;39.95;;;10.10;99.90;;;;;;5090317;28;20054;-70
2022/01/01 00:50:56;;;;;;;91.35;38.53;;;11.10;99.90;;;;;;5089492;28;20044;-68
2022/01/01 00:53:22;;;;;;;91.13;38.42;;;9.60;99.90;;;;;;5072650;28;20048;-68
2022/01/01 00:55:48;;;;;;;101.00;37.42;;;9.80;99.90;;;;;;5107019;28;20044;-69
2022/01/01 00:58:14;;;;;;;86.70;35.75;;;9.80;99.90;;;;;;5106224;28;20135;-69
2022/01/01 01:00:39;;;;;;;79.22;34.53;;;9.60;99.90;;;;;;5106486;28;20094;-69
2022/01/01 01:03:14;;;;;;;98.85;33.92;;;9.80;99.90;;;;;;5106116;28;20083;-69
2022/01/01 01:05:41;;;;;;;105.13;36.45;;;9.80;99.90;;;;;;5073529;28;20136;-69
2022/01/01 01:08:08;;;;;;;100.40;37.38;;;9.60;99.90;;;;;;5073589;28;20084;-69
2022/01/01 01:10:35;;;;;;;106.68;36.97;;;9.30;99.90;;;;;;5072561;28;20385;-69
2022/01/01 01:13:01;;;;;;;122.75;47.25;;;9.50;99.90;;;;;;5072195;28;20041;-69
2022/01/01 01:15:29;;;;;;;141.68;57.35;;;9.30;99.90;;;;;;5055571;28;20109;-69
2022/01/01 01:17:57;;;;;;;148.02;60.63;;;9.50;99.90;;;;;;5072358;28;20048;-69
2022/01/01 01:20:23;;;;;;;145.38;53.35;;;9.60;99.90;;;;;;5055750;28;20097;-68
2022/01/01 01:22:49;;;;;;;120.20;47.95;;;9.40;99.90;;;;;;5073384;28;20048;-69
2022/01/01 01:25:15;;;;;;;124.15;44.70;;;9.20;99.90;;;;;;5073387;28;20043;-69
2022/01/01 01:27:41;;;;;;;123.88;40.97;;;9.20;99.90;;;;;;5071899;28;20125;-68
2022/01/01 01:30:13;;;;;;;103.45;37.25;;;10.10;99.90;;;;;;5074502;28;20044;-69
2022/01/01 01:32:40;;;;;;;101.97;35.10;;;9.20;99.90;;;;;;5077474;28;20048;-70
2022/01/01 01:35:07;;;;;;;96.50;32.90;;;9.30;99.90;;;;;;5060131;28;20453;-69
2022/01/01 01:37:32;;;;;;;117.80;31.67;;;9.20;99.90;;;;;;5077046;28;20056;-69
2022/01/01 01:39:59;;;;;;;102.07;27.90;;;9.20;99.90;;;;;;5111045;28;20048;-69
2022/01/01 01:42:28;;;;;;;103.55;28.42;;;9.20;99.90;;;;;;5077224;28;20037;-69
2022/01/01 01:44:55;;;;;;;92.20;28.60;;;9.10;99.90;;;;;;5075983;28;20570;-69
2022/01/01 01:47:30;;;;;;;88.80;27.77;;;9.50;99.90;;;;;;5059485;28;20067;-75
2022/01/01 01:49:57;;;;;;;104.45;28.85;;;9.40;99.90;;;;;;5059747;28;20041;-70
2022/01/01 01:52:25;;;;;;;100.93;28.98;;;9.30;99.90;;;;;;5059646;28;20461;-69
2022/01/01 01:54:52;;;;;;;101.30;28.63;;;9.10;99.90;;;;;;5059362;28;20048;-70
2022/01/01 01:57:18;;;;;;;96.35;26.92;;;9.10;99.90;;;;;;5076234;28;20078;-69
2022/01/01 01:59:45;;;;;;;95.05;28.10;;;9.80;99.90;;;;;;5076906;28;20455;-69
2022/01/01 02:02:11;;;;;;;108.47;29.40;;;9.30;99.90;;;;;;5076060;28;20045;-70
2022/01/01 02:04:37;;;;;;;107.72;28.13;;;9.10;99.90;;;;;;5075523;28;20500;-69
2022/01/01 02:07:06;;;;;;;92.43;26.20;;;9.30;99.90;;;;;;5077056;28;20049;-70
2022/01/01 02:09:31;;;;;;;98.75;25.77;;;9.30;99.90;;;;;;5076490;28;20048;-69
2022/01/01 02:11:58;;;;;;;96.55;27.23;;;9.30;99.90;;;;;;5076664;28;20045;-69
2022/01/01 02:17:07;;;;;;;100.85;26.27;;;8.90;99.90;;;;;;5058658;28;20050;-69
2022/01/01 02:19:47;;;;;;;106.45;24.58;;;9.50;99.90;;;;;;5061576;28;20102;-69
2022/01/01 02:22:14;;;;;;;92.28;24.55;;;9.30;99.90;;;;;;5059683;28;20389;-69
2022/01/01 02:24:40;;;;;;;103.25;25.42;;;10.10;99.90;;;;;;5076418;28;20477;-69
2022/01/01 02:27:05;;;;;;;111.22;27.52;;;9.30;99.90;;;;;;5075392;28;20040;-68
2022/01/01 02:29:31;;;;;;;100.15;27.75;;;9.80;99.90;;;;;;5076297;28;20420;-69
2022/01/01 02:31:57;;;;;;;105.57;28.58;;;9.40;99.90;;;;;;5059258;28;20407;-69
2022/01/01 02:34:23;;;;;;;99.97;29.33;;;9.80;99.90;;;;;;5075878;28;20075;-69
2022/01/01 02:36:48;;;;;;;115.95;30.88;;;9.40;99.90;;;;;;5109028;28;20050;-69
2022/01/01 02:39:20;;;;;;;114.50;31.80;;;9.80;99.90;;;;;;5058171;28;20132;-69
2022/01/01 02:41:50;;;;;;;120.53;30.90;;;9.60;99.90;;;;;;5075784;28;20102;-69
2022/01/01 02:44:16;;;;;;;114.30;30.40;;;10.70;99.90;;;;;;5075088;28;20056;-68
2022/01/01 02:46:42;;;;;;;130.40;31.30;;;9.30;99.90;;;;;;5075811;28;20405;-69
2022/01/01 02:49:08;;;;;;;109.55;30.52;;;9.30;99.90;;;;;;5076571;28;20052;-69
2022/01/01 02:51:34;;;;;;;129.82;32.17;;;9.80;99.90;;;;;;5074887;28;20479;-69
2022/01/01 02:54:00;;;;;;;;;;;9.60;99.90;;;;;;5075313;28;20135;-69
2022/01/01 02:56:25;;;;;;;104.80;28.55;;;8.30;99.90;;;;;;5075089;28;20007;-69
2022/01/01 02:58:52;;;;;;;127.10;30.77;;;9.50;99.90;;;;;;5074650;28;20049;-70
2022/01/01 03:01:18;;;;;;;115.88;31.38;;;9.40;99.90;;;;;;5075032;28;20059;-70
2022/01/01 03:03:44;;;;;;;;;;;9.80;99.90;;;;;;5058629;28;20409;-69
2022/01/01 03:06:10;;;;;;;109.82;31.27;;;9.60;99.90;;;;;;5108790;28;19920;-69
2022/01/01 03:08:36;;;;;;;130.73;33.97;;;9.10;99.90;;;;;;5109403;28;20135;-69
2022/01/01 03:11:02;;;;;;;;;;;9.50;99.90;;;;;;5076816;28;20064;-69
2022/01/01 03:13:29;;;;;;;143.75;38.28;;;9.10;99.90;;;;;;5074219;28;20372;-70
2022/01/01 03:15:55;;;;;;;146.85;39.83;;;8.80;99.90;;;;;;5073926;28;20051;-69
2022/01/01 03:18:21;;;;;;;142.98;41.10;;;9.30;99.90;;;;;;5074441;28;20095;-71
2022/01/01 03:20:47;;;;;;;135.73;41.53;;;9.30;99.90;;;;;;5108866;28;20096;-69
2022/01/01 03:23:13;;;;;;;145.95;42.60;;;10.00;99.90;;;;;;5075378;28;20048;-69
2022/01/01 03:25:38;;;;;;;149.93;46.45;;;9.60;99.90;;;;;;5107962;28;20040;-69
2022/01/01 03:28:05;;;;;;;161.00;46.55;;;9.00;99.90;;;;;;5108945;28;20424;-69
2022/01/01 03:30:32;;;;;;;164.60;48.42;;;9.30;99.90;;;;;;5075185;28;20044;-68
2022/01/01 03:32:58;;;;;;;171.50;50.08;;;9.40;99.90;;;;;;5076034;28;20048;-68
2022/01/01 03:35:24;;;;;;;160.98;47.90;;;9.10;99.90;;;;;;5074113;28;20040;-68
2022/01/01 03:37:49;;;;;;;148.32;46.50;;;10.10;99.90;;;;;;5074476;28;20049;-69
2022/01/01 03:40:15;;;;;;;160.98;43.30;;;10.20;99.90;;;;;;5075096;28;20056;-69
2022/01/01 03:42:41;;;;;;;152.98;43.47;;;10.00;99.90;;;;;;5057435;28;20133;-69
2022/01/01 03:45:08;;;;;;;142.90;40.20;;;10.30;99.90;;;;;;5057312;28;20082;-69
2022/01/01 03:47:34;;;;;;;150.00;39.88;;;9.30;99.90;;;;;;5058085;28;20071;-69
2022/01/01 03:50:00;;;;;;;;;;;9.10;99.90;;;;;;5075848;28;20100;-69
2022/01/01 03:52:26;;;;;;;145.95;37.22;;;9.50;99.90;;;;;;5111127;28;19972;-69
2022/01/01 03:54:52;;;;;;;164.68;36.15;;;10.10;99.90;;;;;;5059910;28;20412;-69
2022/01/01 03:57:20;;;;;;;136.40;35.85;;;9.60;99.90;;;;;;5077069;28;20084;-69
2022/01/01 03:59:46;;;;;;;144.88;35.08;;;10.50;99.90;;;;;;5076880;28;20088;-69
2022/01/01 04:02:13;;;;;;;148.45;34.03;;;9.90;99.90;;;;;;5076320;28;20106;-69
2022/01/01 04:04:38;;;;;;;139.75;32.95;;;9.70;99.90;;;;;;5077350;28;20041;-69
2022/01/01 04:07:04;;;;;;;145.35;33.22;;;9.50;99.90;;;;;;5110734;28;20430;-69
2022/01/01 04:09:30;;;;;;;143.70;33.85;;;9.50;99.90;;;;;;5056732;28;20048;-69
2022/01/01 04:11:56;;;;;;;136.48;33.85;;;9.50;99.90;;;;;;5074310;28;20048;-71
2022/01/01 04:14:21;;;;;;;137.13;32.38;;;9.30;99.90;;;;;;5073010;28;20097;-69
2022/01/01 04:16:47;;;;;;;141.57;31.30;;;9.10;99.90;;;;;;5074459;28;20044;-70
2022/01/01 04:19:14;;;;;;;155.50;32.20;;;9.30;99.90;;;;;;5057513;28;20057;-69
2022/01/01 04:21:39;;;;;;;;;;;9.40;99.90;;;;;;5075179;28;20057;-69
2022/01/01 04:24:05;;;;;;;144.77;31.67;;;9.40;99.90;;;;;;5072905;28;19921;-69
2022/01/01 04:26:32;;;;;;;149.15;33.20;;;9.30;99.90;;;;;;5073617;28;20048;-69
2022/01/01 04:28:58;;;;;;;135.93;32.25;;;9.40;99.90;;;;;;5056878;28;20048;-71
2022/01/01 04:31:24;;;;;;;143.57;33.42;;;9.30;99.90;;;;;;5074199;28;20464;-70
2022/01/01 04:33:49;;;;;;;151.75;35.92;;;10.50;99.90;;;;;;5072702;28;20040;-69
2022/01/01 04:36:15;;;;;;;160.27;36.97;;;9.60;99.90;;;;;;5072953;28;20040;-70
2022/01/01 04:38:42;;;;;;;176.32;43.08;;;9.80;99.90;;;;;;5072664;28;20052;-70
2022/01/01 04:41:13;;;;;;;216.15;51.25;;;10.00;99.90;;;;;;5089781;28;20131;-71
2022/01/01 04:43:43;;;;;;;225.35;52.28;;;9.40;99.90;;;;;;5056023;28;20060;-71
2022/01/01 04:46:10;;;;;;;231.13;53.05;;;9.50;99.90;;;;;;5073557;28;20036;-71
2022/01/01 04:48:37;;;;;;;235.50;53.90;;;9.80;99.90;;;;;;5073014;28;20123;-71
2022/01/01 04:51:07;;;;;;;265.80;57.58;;;9.00;99.90;;;;;;5056127;28;20202;-71
2022/01/01 04:53:43;;;;;;;253.27;52.42;;;9.20;99.90;;;;;;5056106;28;20127;-72
2022/01/01 04:56:09;;;;;;;255.07;53.15;;;10.20;99.90;;;;;;5072996;28;20146;-71
2022/01/01 04:58:35;;;;;;;235.15;50.95;;;9.40;99.90;;;;;;5039664;28;20539;-71
2022/01/01 05:01:01;;;;;;;241.00;49.95;;;9.20;99.90;;;;;;5072884;28;20106;-70
2022/01/01 05:03:27;;;;;;;;;;;9.80;99.90;;;;;;5056259;28;20077;-70
2022/01/01 05:05:53;;;;;;;193.38;45.33;;;9.60;99.90;;;;;;5071709;28;19966;-70
2022/01/01 05:08:18;;;;;;;216.25;45.25;;;11.50;99.90;;;;;;5055890;28;20040;-71
2022/01/01 05:10:44;;;;;;;197.15;45.60;;;9.80;99.90;;;;;;5055417;28;20078;-71
2022/01/01 05:13:10;;;;;;;180.93;43.58;;;9.40;99.90;;;;;;5055588;28;20052;-71
2022/01/01 05:15:35;;;;;;;176.38;42.47;;;9.70;99.90;;;;;;5072208;28;20040;-71
2022/01/01 05:18:01;;;;;;;172.82;43.50;;;10.50;99.90;;;;;;5089306;28;20048;-71
2022/01/01 05:20:27;;;;;;;175.30;42.15;;;10.30;99.90;;;;;;5106150;28;20052;-70
2022/01/01 05:22:52;;;;;;;169.95;38.53;;;9.70;99.90;;;;;;5089314;28;20049;-71
2022/01/01 05:25:18;;;;;;;181.13;43.13;;;10.30;99.90;;;;;;5072316;28;20052;-70
2022/01/01 05:27:44;;;;;;;172.13;39.95;;;9.90;99.90;;;;;;5073372;28;20155;-70
2022/01/01 05:30:10;;;;;;;184.43;40.83;;;9.60;99.90;;;;;;5055692;28;20041;-71
2022/01/01 05:32:36;;;;;;;;;;;9.70;99.90;;;;;;5072542;28;20047;-70
2022/01/01 05:35:02;;;;;;;203.60;38.78;;;9.90;99.90;;;;;;5055360;28;19920;-70
2022/01/01 05:37:27;;;;;;;190.80;44.25;;;9.60;99.90;;;;;;5073026;28;20539;-70
2022/01/01 05:39:53;;;;;;;222.07;43.08;;;9.70;99.90;;;;;;5056498;28;20084;-70
2022/01/01 05:42:19;;;;;;;241.63;47.63;;;10.00;99.90;;;;;;5055772;28;20045;-71
2022/01/01 05:44:45;;;;;;;269.08;46.83;;;10.30;99.90;;;;;;5055453;28;20044;-70
2022/01/01 05:47:11;;;;;;;276.88;48.75;;;9.80;99.90;;;;;;5072912;28;20377;-71
2022/01/01 05:49:37;;;;;;;280.02;49.47;;;10.90;99.90;;;;;;5071915;28;20053;-70
2022/01/01 05:52:03;;;;;;;264.50;48.47;;;10.20;99.90;;;;;;5055523;28;20060;-70
2022/01/01 05:54:28;;;;;;;265.05;48.30;;;9.90;99.90;;;;;;5072485;28;20126;-71
2022/01/01 05:56:54;;;;;;;293.42;51.80;;;9.80;99.90;;;;;;5073030;28;20084;-71
2022/01/01 05:59:20;;;;;;;259.00;49.30;;;9.70;99.90;;;;;;5105827;28;20044;-71
2022/01/01 06:01:45;;;;;;;308.80;50.13;;;9.90;99.90;;;;;;5089436;28;20492;-70
2022/01/01 06:04:11;;;;;;;252.45;46.30;;;10.00;99.90;;;;;;5055337;28;20045;-71
2022/01/01 06:06:37;;;;;;;244.90;46.53;;;10.30;99.90;;;;;;5072010;28;20113;-71
2022/01/01 06:09:02;;;;;;;228.60;44.58;;;9.90;99.90;;;;;;5071951;28;20392;-71
2022/01/01 06:11:30;;;;;;;206.52;39.67;;;10.10;99.90;;;;;;5105471;28;20048;-71
2022/01/01 06:13:56;;;;;;;210.93;41.67;;;9.90;99.90;;;;;;5071579;28;20435;-71
2022/01/01 06:16:22;;;;;;;181.63;36.42;;;10.00;99.90;;;;;;5073633;28;20055;-71
2022/01/01 06:18:47;;;;;;;169.85;35.13;;;10.00;99.90;;;;;;5075512;28;20045;-71
2022/01/01 06:21:13;;;;;;;150.60;30.90;;;12.10;99.90;;;;;;5059702;28;20109;-71
2022/01/01 06:23:40;;;;;;;150.40;33.55;;;8.90;99.90;;;;;;5042055;28;20094;-70
2022/01/01 06:26:05;;;;;;;;;;;10.10;99.90;;;;;;5076160;28;20070;-71
2022/01/01 06:28:31;;;;;;;151.15;30.63;;;10.00;99.90;;;;;;5075374;28;20365;-70
2022/01/01 06:30:57;;;;;;;160.38;32.22;;;10.30;99.90;;;;;;5059423;28;20135;-71
2022/01/01 06:33:23;;;;;;;150.60;31.00;;;10.40;99.90;;;;;;5092943;28;20041;-71
2022/01/01 06:35:51;;;;;;;161.15;30.58;;;10.20;99.90;;;;;;5092184;28;20087;-71
2022/01/01 06:38:17;;;;;;;153.13;30.42;;;11.30;99.90;;;;;;5075482;28;20139;-70
2022/01/01 06:40:43;;;;;;;;;;;10.20;99.90;;;;;;5058883;28;20137;-71
2022/01/01 06:43:11;;;;;;;145.05;29.77;;;11.60;99.90;;;;;;5075372;28;19920;-71
2022/01/01 06:45:39;;;;;;;133.75;30.00;;;10.00;99.90;;;;;;5058421;28;20484;-71
2022/01/01 06:48:04;;;;;;;138.20;29.35;;;10.40;99.90;;;;;;5075288;28;20040;-71
2022/01/01 06:50:31;;;;;;;137.98;30.75;;;10.50;99.90;;;;;;5059200;28;20117;-71
2022/01/01 06:52:57;;;;;;;139.68;30.60;;;10.20;99.90;;;;;;5074844;28;20045;-70
2022/01/01 06:55:22;;;;;;;161.57;30.00;;;10.20;99.90;;;;;;5074862;28;20073;-71
2022/01/01 06:57:49;;;;;;;151.55;31.55;;;10.40;99.90;;;;;;5074674;28;20055;-71
2022/01/01 07:00:15;;;;;;;;;;;10.30;99.90;;;;;;5076062;28;20052;-71
2022/01/01 07:02:45;;;;;;;135.30;28.50;;;10.40;99.90;;;;;;5074747;28;19943;-71
2022/01/01 07:05:12;;;;;;;144.10;29.42;;;10.70;99.90;;;;;;5075789;28;20052;-71
2022/01/01 07:07:38;;;;;;;125.03;27.50;;;10.80;99.90;;;;;;5074652;28;20036;-72
2022/01/01 07:10:10;;;;;;;112.65;27.27;;;10.60;99.90;;;;;;5024889;28;20059;-72
2022/01/01 07:12:36;;;;;;;112.72;26.55;;;10.40;99.90;;;;;;5074439;28;20476;-72
2022/01/01 07:15:04;;;;;;;124.32;27.58;;;10.80;99.90;;;;;;5057737;28;20435;-71
2022/01/01 07:17:29;;;;;;;122.47;28.08;;;10.40;99.90;;;;;;5074692;28;20460;-72
2022/01/01 07:19:55;;;;;;;119.50;25.13;;;10.50;99.90;;;;;;5107979;28;20076;-71
2022/01/01 07:22:21;;;;;;;105.60;25.38;;;10.50;99.90;;;;;;5074243;28;20131;-71
2022/01/01 07:24:47;;;;;;;98.65;24.08;;;10.40;99.90;;;;;;5075409;28;20049;-71
2022/01/01 07:27:13;;;;;;;102.43;23.13;;;10.70;99.90;;;;;;5056843;28;20507;-71
2022/01/01 07:29:39;;;;;;;92.10;22.67;;;10.20;99.90;;;;;;5057527;28;20129;-70
2022/01/01 07:32:06;;;;;;;;;;;10.50;99.90;;;;;;5058797;28;20040;-71
2022/01/01 07:34:31;;;;;;;98.05;24.75;;;10.80;99.90;;;;;;5056866;28;19973;-72
2022/01/01 07:36:57;;;;;;;106.90;25.08;;;10.60;99.90;;;;;;5057124;28;20127;-71
2022/01/01 07:39:23;;;;;;;106.65;24.95;;;10.40;99.90;;;;;;5090771;28;20053;-72
2022/01/01 07:41:48;;;;;;;122.45;29.10;;;10.40;99.90;;;;;;5090841;28;20052;-71
2022/01/01 07:44:14;;;;;;;112.68;27.98;;;10.70;99.90;;;;;;5090754;28;20052;-71
2022/01/01 07:46:40;;;;;;;131.70;29.67;;;10.90;99.90;;;;;;5057438;28;20044;-71
2022/01/01 07:49:06;;;;;;;132.05;29.13;;;10.70;99.90;;;;;;5074668;28;20461;-70
2022/01/01 07:51:32;;;;;;;117.28;30.40;;;10.40;99.90;;;;;;5074639;28;20049;-71
2022/01/01 07:53:58;;;;;;;145.10;33.55;;;10.50;99.90;;;;;;5057310;28;20048;-71
2022/01/01 07:56:23;;;;;;;137.80;34.22;;;10.70;99.90;;;;;;5073758;28;20113;-71
2022/01/01 07:58:51;;;;;;;160.88;37.65;;;10.70;99.90;;;;;;5057091;28;20388;-71
2022/01/01 08:01:17;;;;;;;158.82;36.95;;;10.50;99.90;;;;;;5074525;28;20358;-71
2022/01/01 08:03:43;;;;;;;150.25;37.15;;;10.50;99.90;;;;;;5073840;28;20110;-70
2022/01/01 08:06:09;;;;;;;148.68;39.42;;;10.60;99.90;;;;;;5074237;28;20041;-71
2022/01/01 08:08:34;;;;;;;159.00;40.33;;;10.90;99.90;;;;;;5057617;28;20083;-70
2022/01/01 08:11:00;;;;;;;159.38;41.70;;;10.60;99.90;;;;;;5107214;28;20044;-71
2022/01/01 08:13:26;;;;;;;140.60;41.42;;;10.50;99.90;;;;;;5073774;28;20109;-71
2022/01/01 08:15:53;;;;;;;179.80;43.22;;;11.30;99.90;;;;;;5107518;28;20040;-71
2022/01/01 08:18:20;;;;;;;165.23;42.85;;;10.90;99.90;;;;;;5074361;28;20041;-72
2022/01/01 08:20:46;;;;;;;152.18;40.45;;;11.00;99.90;;;;;;5072891;28;20054;-71
2022/01/01 08:23:11;;;;;;;;;;;11.00;99.90;;;;;;5073317;28;20388;-71
2022/01/01 08:25:37;;;;;;;139.80;40.90;;;10.70;99.90;;;;;;5073874;28;19931;-72
2022/01/01 08:28:05;;;;;;;146.15;42.00;;;10.80;99.90;;;;;;5056380;28;20468;-71
2022/01/01 08:30:31;;;;;;;143.40;41.22;;;10.70;99.90;;;;;;5073015;28;20044;-71
2022/01/01 08:33:01;;;;;;;134.98;42.95;;;11.00;99.90;;;;;;5073255;28;20056;-70
2022/01/01 08:35:32;;;;;;;144.77;43.63;;;11.20;99.90;;;;;;5072375;28;20055;-71
2022/01/01 08:38:00;;;;;;;126.22;41.03;;;10.80;99.90;;;;;;5073640;28;20044;-71
2022/01/01 08:40:27;;;;;;;126.45;42.50;;;11.00;99.90;;;;;;5056039;28;20052;-71
2022/01/01 08:42:53;;;;;;;127.55;40.80;;;13.00;99.90;;;;;;5056331;28;20105;-72
2022/01/01 08:45:19;;;;;;;;;;;11.10;99.90;;;;;;5056372;28;20455;-71
2022/01/01 08:47:45;;;;;;;116.05;40.63;;;10.80;99.90;;;;;;5056131;28;19967;-71
2022/01/01 08:50:11;;;;;;;123.35;38.80;;;11.00;99.90;;;;;;5072363;28;20114;-72
2022/01/01 08:52:37;;;;;;;116.65;39.83;;;11.20;99.90;;;;;;5055164;28;20053;-72
2022/01/01 08:55:03;;;;;;;116.10;38.08;;;11.10;99.90;;;;;;5056344;28;20049;-71
2022/01/01 08:57:32;;;;;;;109.80;38.55;;;11.30;99.90;;;;;;5072160;28;20188;-72
2022/01/01 09:00:03;;;;;;;93.70;34.75;;;11.10;99.90;;;;;;5089220;28;20084;-72
2022/01/01 09:02:29;;;;;;;104.60;36.38;;;11.10;99.90;;;;;;5072752;28;20449;-71
2022/01/01 09:04:55;;;;;;;84.43;33.17;;;11.60;99.90;;;;;;5055472;28;20085;-70
2022/01/01 09:07:20;;;;;;;81.25;32.33;;;11.00;99.90;;;;;;5055612;28;20051;-74
2022/01/01 09:09:46;;;;;;;86.95;32.38;;;11.40;99.90;;;;;;5089391;28;20396;-71
2022/01/01 09:12:12;;;;;;;73.95;30.33;;;11.10;99.90;;;;;;5039095;28;20396;-70
2022/01/01 09:14:38;;;;;;;70.40;29.92;;;11.20;99.90;;;;;;5089276;28;20044;-74
2022/01/01 09:17:06;;;;;;;74.85;31.85;;;11.40;99.90;;;;;;5072092;28;20060;-75
2022/01/01 09:19:32;;;;;;;83.10;30.77;;;11.40;99.90;;;;;;5055032;28;20504;-70
2022/01/01 09:21:57;;;;;;;68.28;29.98;;;11.30;99.90;;;;;;5072057;28;20134;-73
2022/01/01 09:24:23;;;;;;;70.28;29.70;;;11.50;99.90;;;;;;5106840;28;20469;-71
2022/01/01 09:26:49;;;;;;;60.63;28.17;;;11.70;99.90;;;;;;5055287;28;20044;-70
2022/01/01 09:29:15;;;;;;;60.65;29.20;;;11.70;99.90;;;;;;5072603;28;20051;-68
2022/01/01 09:31:43;;;;;;;63.95;29.92;;;11.60;99.90;;;;;;5072862;28;20052;-70
2022/01/01 09:34:10;;;;;;;71.53;29.98;;;11.70;99.90;;;;;;5071914;28;20044;-70
2022/01/01 09:36:36;;;;;;;61.63;27.42;;;12.00;99.90;;;;;;5055653;28;20059;-69
2022/01/01 09:39:04;;;;;;;63.78;28.23;;;12.00;99.90;;;;;;5054814;28;20079;-69
2022/01/01 09:41:30;;;;;;;55.67;25.65;;;11.80;99.90;;;;;;5073026;28;20083;-70
2022/01/01 09:43:57;;;;;;;58.47;24.67;;;11.80;99.90;;;;;;5055072;28;20495;-69
2022/01/01 09:46:25;;;;;;;58.92;24.30;;;11.70;99.90;;;;;;5073449;28;20426;-70
2022/01/01 09:48:52;;;;;;;53.50;23.85;;;11.70;99.90;;;;;;5071993;28;20127;-71
2022/01/01 09:51:20;;;;;;;51.17;23.33;;;11.90;99.90;;;;;;5074690;28;20045;-69
2022/01/01 09:53:46;;;;;;;48.85;21.48;;;12.40;99.90;;;;;;5059249;28;20040;-70
2022/01/01 09:56:12;;;;;;;48.05;21.48;;;12.00;99.90;;;;;;5076223;28;20149;-71
2022/01/01 09:58:38;;;;;;;;;;;13.20;99.90;;;;;;5077618;28;20045;-72
2022/01/01 10:01:06;;;;;;;48.42;20.60;;;11.90;99.90;;;;;;5058945;28;20049;-71
2022/01/01 10:03:41;;;;;;;49.05;21.75;;;12.60;99.90;;;;;;5076033;28;20499;-70
2022/01/01 10:06:13;;;;;;;53.13;20.88;;;12.00;99.90;;;;;;5059097;28;20044;-70
2022/01/01 10:08:41;;;;;;;50.63;20.85;;;12.00;99.90;;;;;;5075801;28;20091;-71
2022/01/01 10:11:08;;;;;;;44.03;21.73;;;12.20;99.90;;;;;;5059011;28;20063;-71
2022/01/01 10:13:37;;;;;;;53.65;20.67;;;11.90;99.90;;;;;;5076307;28;20484;-70
2022/01/01 10:16:05;;;;;;;49.60;20.17;;;11.60;99.90;;;;;;5059006;28;20131;-71
2022/01/01 10:18:33;;;;;;;49.05;19.30;;;12.00;99.90;;;;;;5058865;28;20053;-70
2022/01/01 10:21:04;;;;;;;50.65;20.40;;;11.90;99.90;;;;;;5059709;28;20041;-71
2022/01/01 10:23:33;;;;;;;52.08;21.20;;;11.80;99.90;;;;;;5076205;28;20041;-70
2022/01/01 10:29:16;;;;;;;50.22;19.90;;;11.90;99.90;;;;;;5074870;28;20529;-70
2022/01/01 10:31:56;;;;;;;44.90;20.10;;;12.00;99.90;;;;;;5059580;28;20055;-70
2022/01/01 10:34:26;;;;;;;41.90;19.42;;;12.20;99.90;;;;;;5075198;28;20044;-71
2022/01/01 10:36:54;;;;;;;45.22;20.25;;;11.80;99.90;;;;;;5074901;28;20477;-71
2022/01/01 10:39:22;;;;;;;47.63;21.55;;;12.20;99.90;;;;;;5075731;28;20048;-71
2022/01/01 10:41:58;;;;;;;54.83;20.23;;;12.00;99.90;;;;;;5075158;28;20404;-71
2022/01/01 10:44:30;;;;;;;41.92;19.15;;;12.20;99.90;;;;;;5059240;28;20131;-69
2022/01/01 10:46:57;;;;;;;39.75;18.45;;;12.00;99.90;;;;;;5075369;28;20558;-70
2022/01/01 10:50:14;;;;;;;43.20;18.75;;;12.20;99.90;;;;;;5058424;28;20079;-71
2022/01/01 10:52:28;;;;;;;45.60;17.45;;;12.20;99.90;;;;;;5066787;28;20048;-71
2022/01/01 10:55:00;;;;;;;41.40;17.83;;;12.10;99.90;;;;;;5076723;28;20040;-69
2022/01/01 10:57:29;;;;;;;34.63;15.48;;;12.30;99.90;;;;;;5075865;28;20041;-68
2022/01/01 11:00:17;;;;;;;32.85;15.63;;;12.50;99.90;;;;;;5074604;28;20481;-67
2022/01/01 11:02:52;;;;;;;36.30;15.52;;;12.10;99.90;;;;;;5075017;28;20048;-68
2022/01/01 11:05:31;;;;;;;35.55;15.23;;;13.00;99.90;;;;;;5058163;28;20408;-68
2022/01/01 11:07:58;;;;;;;37.30;15.40;;;12.40;99.90;;;;;;5058447;28;20063;-69
2022/01/01 11:10:25;;;;;;;36.33;15.93;;;12.30;99.90;;;;;;5058029;28;20048;-69
2022/01/01 11:12:54;;;;;;;27.38;14.48;;;12.40;99.90;;;;;;5074482;28;20044;-74
2022/01/01 11:15:21;;;;;;;36.40;14.55;;;12.40;99.90;;;;;;5074311;28;20131;-69
2022/01/01 11:17:47;;;;;;;31.50;14.85;;;13.00;99.90;;;;;;5074431;28;20045;-69
2022/01/01 11:20:14;;;;;;;32.75;14.23;;;13.50;99.90;;;;;;5074974;28;20052;-70
2022/01/01 11:22:42;;;;;;;33.88;15.20;;;13.20;99.90;;;;;;5057704;28;20049;-69
2022/01/01 11:25:08;;;;;;;37.10;15.13;;;12.90;99.90;;;;;;5074338;28;20405;-69
2022/01/01 11:27:33;;;;;;;36.45;14.65;;;12.40;99.90;;;;;;5073949;28;20065;-69
2022/01/01 11:30:03;;;;;;;31.25;14.00;;;12.30;99.90;;;;;;5041038;28;20044;-69
2022/01/01 11:32:43;;;;;;;35.42;14.63;;;12.20;99.90;;;;;;5073436;28;20044;-70
2022/01/01 11:35:18;;;;;;;30.48;15.18;;;12.20;99.90;;;;;;5074377;28;20076;-69
2022/01/01 11:37:59;;;;;;;35.78;14.73;;;12.30;99.90;;;;;;5074337;28;20135;-70
2022/01/01 11:40:27;;;;;;;29.17;13.90;;;12.30;99.90;;;;;;5090316;28;20052;-69
2022/01/01 11:42:53;;;;;;;37.08;14.35;;;12.20;99.90;;;;;;5075383;28;20379;-70
2022/01/01 11:45:42;;;;;;;37.38;13.85;;;12.40;99.90;;;;;;5057058;28;20048;-71
2022/01/01 11:48:29;;;;;;;31.73;13.57;;;12.40;99.90;;;;;;5073809;28;20052;-71
2022/01/01 11:50:55;;;;;;;26.17;13.35;;;12.20;99.90;;;;;;5107604;28;20088;-74
2022/01/01 11:53:31;;;;;;;;;;;12.20;99.90;;;;;;5073920;28;20086;-71
2022/01/01 11:56:10;;;;;;;31.25;14.40;;;12.40;99.90;;;;;;5090169;28;19938;-71
2022/01/01 11:58:49;;;;;;;30.80;13.93;;;12.10;99.90;;;;;;5073698;28;20053;-71
2022/01/01 12:01:17;;;;;;;27.77;13.10;;;11.90;99.90;;;;;;5057464;28;20051;-72
2022/01/01 12:03:50;;;;;;;26.15;13.32;;;12.20;99.90;;;;;;5074325;28;20055;-69
2022/01/01 12:06:17;;;;;;;28.40;12.77;;;12.30;99.90;;;;;;5041034;28;20048;-71
2022/01/01 12:08:46;;;;;;;26.48;12.00;;;12.10;99.90;;;;;;5073100;28;20044;-71
2022/01/01 12:11:29;;;;;;;29.85;12.10;;;12.10;99.90;;;;;;5073174;28;20056;-71
2022/01/01 12:13:57;;;;;;;31.17;13.20;;;12.20;99.90;;;;;;5073997;28;20469;-70
2022/01/01 12:16:23;;;;;;;26.90;11.93;;;12.30;99.90;;;;;;5073098;28;20091;-74
2022/01/01 12:18:49;;;;;;;27.58;12.57;;;13.20;99.90;;;;;;5072991;28;20135;-72
2022/01/01 12:21:24;;;;;;;31.20;12.43;;;12.20;99.90;;;;;;5074304;28;20131;-70
2022/01/01 12:23:54;;;;;;;31.20;11.77;;;12.40;99.90;;;;;;5074183;28;20047;-71
2022/01/01 12:26:31;;;;;;;29.70;11.52;;;12.30;99.90;;;;;;5056756;28;20050;-70
2022/01/01 12:29:06;;;;;;;22.65;11.10;;;12.50;99.90;;;;;;5073517;28;20045;-70
2022/01/01 12:31:32;;;;;;;28.95;10.65;;;12.20;99.90;;;;;;5056776;28;20087;-70
2022/01/01 12:34:09;;;;;;;27.83;11.32;;;12.10;99.90;;;;;;5074024;28;20049;-70
2022/01/01 12:36:40;;;;;;;22.00;10.73;;;12.30;99.90;;;;;;5073589;28;20127;-70
2022/01/01 12:39:08;;;;;;;25.83;10.65;;;12.40;99.90;;;;;;5072691;28;20057;-70